createdAt,value
2023-03-31T00:03:44.478Z,19.35
2023-03-31T00:08:52.536Z,14.43
2023-03-31T00:13:56.943Z,15.43
2023-03-31T00:19:02.119Z,11.13
2023-03-31T00:24:08.977Z,16.23
2023-03-31T00:29:14.682Z,17.13
2023-03-31T00:34:18.825Z,13.05
2023-03-31T00:39:25.590Z,11.27
2023-03-31T00:44:33.562Z,13.30
2023-03-31T00:49:41.309Z,15.05
2023-03-31T00:54:50.634Z,12.48
2023-03-31T01:00:00.415Z,10.95
2023-03-31T01:05:04.890Z,10.32
2023-03-31T01:10:12.083Z,7.60
2023-03-31T01:15:16.453Z,12.45
2023-03-31T01:20:34.100Z,8.93
2023-03-31T01:26:10.382Z,10.65
2023-03-31T01:31:51.014Z,9.23
2023-03-31T01:37:28.605Z,11.18
2023-03-31T01:42:38.429Z,13.50
2023-03-31T01:47:48.482Z,12.50
2023-03-31T01:53:02.051Z,9.70
2023-03-31T01:58:16.040Z,12.95
2023-03-31T02:03:24.028Z,12.48
2023-03-31T02:08:33.737Z,10.98
2023-03-31T02:13:44.650Z,13.32
2023-03-31T02:18:53.110Z,8.35
2023-03-31T02:23:58.781Z,12.98
2023-03-31T02:29:04.700Z,12.88
2023-03-31T02:39:16.977Z,13.20
2023-03-31T02:44:22.906Z,9.63
2023-03-31T02:49:29.937Z,9.38
2023-03-31T02:55:08.092Z,8.70
2023-03-31T03:00:25.716Z,10.43
2023-03-31T03:05:37.487Z,9.70
2023-03-31T03:11:08.017Z,9.18
2023-03-31T03:16:19.678Z,11.32
2023-03-31T03:21:23.916Z,9.88
2023-03-31T03:26:28.876Z,12.25
2023-03-31T03:31:34.914Z,9.32
2023-03-31T03:41:43.463Z,11.68
2023-03-31T03:46:49.102Z,10.80
2023-03-31T03:51:53.352Z,10.50
2023-03-31T03:56:57.523Z,11.88
2023-03-31T04:02:03.342Z,11.82
2023-03-31T04:07:07.720Z,10.68
2023-03-31T04:12:12.053Z,11.57
2023-03-31T04:17:17.631Z,11.88
2023-03-31T04:22:21.733Z,11.82
2023-03-31T04:27:27.303Z,10.60
2023-03-31T04:32:36.739Z,9.52
2023-03-31T04:37:43.268Z,10.07
2023-03-31T04:42:48.125Z,11.20
2023-03-31T04:47:53.747Z,17.63
2023-03-31T04:52:57.940Z,12.68
2023-03-31T04:58:02.821Z,13.07
2023-03-31T05:03:09.932Z,12.45
2023-03-31T05:08:14.098Z,12.70
2023-03-31T05:13:18.253Z,12.77
2023-03-31T05:18:23.755Z,13.10
2023-03-31T05:23:28.050Z,14.32
2023-03-31T05:28:32.605Z,13.23
2023-03-31T05:33:41.474Z,12.00
2023-03-31T05:38:46.083Z,12.30
2023-03-31T05:43:50.314Z,13.55
2023-03-31T05:48:56.606Z,13.95
2023-03-31T05:54:00.766Z,19.05
2023-03-31T05:59:05.463Z,19.05
2023-03-31T06:04:11.435Z,14.25
2023-03-31T06:09:15.696Z,14.02
2023-03-31T06:14:19.943Z,11.75
2023-03-31T06:19:25.563Z,16.88
2023-03-31T06:29:33.837Z,15.18
2023-03-31T06:34:39.483Z,15.82
2023-03-31T06:39:44.686Z,15.27
2023-03-31T06:44:48.828Z,15.23
2023-03-31T06:49:54.406Z,16.30
2023-03-31T06:54:58.563Z,14.35
2023-03-31T07:00:02.696Z,12.30
2023-03-31T07:05:09.226Z,12.80
2023-03-31T07:10:13.852Z,13.82
2023-03-31T07:15:19.001Z,12.60
2023-03-31T07:20:28.162Z,13.40
2023-03-31T07:30:36.834Z,22.88
2023-03-31T07:35:43.274Z,12.40
2023-03-31T07:40:53.123Z,13.38
2023-03-31T07:46:07.831Z,23.08
2023-03-31T07:51:14.015Z,11.45
2023-03-31T08:01:26.195Z,22.42
2023-03-31T08:06:32.118Z,16.45
2023-03-31T08:16:41.491Z,15.27
2023-03-31T08:21:47.221Z,11.07
2023-03-31T08:26:51.380Z,17.52
2023-03-31T08:31:56.328Z,14.32
2023-03-31T08:37:03.716Z,8.60
2023-03-31T08:42:16.089Z,12.40
2023-03-31T08:47:24.599Z,11.07
2023-03-31T08:52:34.789Z,15.52
2023-03-31T08:57:54.487Z,14.55
2023-03-31T09:03:07.198Z,9.93
2023-03-31T09:08:21.011Z,17.20
2023-03-31T09:13:56.899Z,27.33
2023-03-31T09:19:02.729Z,9.10
2023-03-31T09:29:19.368Z,7.63
2023-03-31T09:34:28.533Z,11.75
2023-03-31T09:39:34.170Z,9.77
2023-03-31T09:49:53.852Z,7.75
2023-03-31T09:55:03.864Z,25.77
2023-03-31T10:00:17.851Z,8.07
2023-03-31T10:05:33.768Z,11.48
2023-03-31T10:10:39.957Z,7.93
2023-03-31T10:15:44.861Z,9.40
2023-03-31T10:20:52.808Z,8.37
2023-03-31T10:25:58.734Z,16.17
2023-03-31T10:31:04.502Z,9.73
2023-03-31T10:36:23.766Z,9.82
2023-03-31T10:41:31.454Z,11.65
2023-03-31T10:46:44.333Z,17.30
2023-03-31T10:51:54.511Z,10.05
2023-03-31T10:57:03.755Z,8.73
2023-03-31T11:02:37.185Z,13.25
2023-03-31T11:07:52.114Z,11.00
2023-03-31T11:13:03.553Z,9.40
2023-03-31T11:18:37.723Z,8.85
2023-03-31T11:23:44.191Z,9.52
2023-03-31T11:29:04.700Z,6.47
2023-03-31T11:34:44.622Z,15.50
2023-03-31T11:40:03.073Z,6.38
2023-03-31T11:45:17.114Z,10.32
2023-03-31T11:50:24.337Z,10.73
2023-03-31T11:55:31.826Z,10.32
2023-03-31T12:00:42.438Z,10.32
2023-03-31T12:05:51.116Z,10.60
2023-03-31T12:11:01.734Z,12.88
2023-03-31T12:16:14.323Z,10.73
2023-03-31T12:21:19.259Z,13.00
2023-03-31T12:26:37.091Z,10.73
2023-03-31T12:31:45.451Z,12.23
2023-03-31T12:37:06.630Z,13.80
2023-03-31T12:42:46.269Z,12.93
2023-03-31T12:48:07.464Z,11.02
2023-03-31T12:53:22.942Z,10.93
2023-03-31T12:58:54.252Z,15.32
2023-03-31T13:04:22.206Z,9.80
2023-03-31T13:09:52.321Z,12.90
2023-03-31T13:20:35.987Z,17.98
2023-03-31T13:25:46.317Z,18.52
2023-03-31T13:31:02.047Z,12.25
2023-03-31T13:36:46.102Z,14.15
2023-03-31T13:41:58.800Z,16.33
2023-03-31T13:47:34.359Z,12.43
2023-03-31T13:52:48.557Z,14.77
2023-03-31T13:58:36.360Z,14.43
2023-03-31T14:03:56.323Z,14.68
2023-03-31T14:09:06.726Z,15.20
2023-03-31T14:14:15.652Z,19.23
2023-03-31T14:19:52.313Z,18.67
2023-03-31T14:25:09.245Z,14.85
2023-03-31T14:30:24.868Z,19.98
2023-03-31T14:35:38.644Z,18.27
2023-03-31T14:40:49.062Z,17.38
2023-03-31T14:46:00.432Z,15.70
2023-03-31T14:51:10.794Z,18.42
2023-03-31T14:56:22.189Z,19.13
2023-03-31T15:01:34.535Z,16.20
2023-03-31T15:06:40.071Z,15.35
2023-03-31T15:11:45.816Z,16.48
2023-03-31T15:21:57.439Z,19.27
2023-03-31T15:27:06.054Z,19.13
2023-03-31T15:32:16.460Z,17.50
2023-03-31T15:37:27.926Z,14.93
2023-03-31T15:42:35.780Z,16.65
2023-03-31T15:47:52.760Z,19.42
2023-03-31T15:52:58.965Z,21.02
2023-03-31T15:58:04.761Z,19.30
2023-03-31T16:03:17.722Z,16.55
2023-03-31T16:08:26.715Z,20.65
2023-03-31T16:13:33.959Z,17.60
2023-03-31T16:18:42.129Z,19.55
2023-03-31T16:23:54.857Z,18.98
2023-03-31T16:29:04.229Z,20.80
2023-03-31T16:34:12.761Z,22.60
2023-03-31T16:39:16.936Z,19.45
2023-03-31T16:44:22.677Z,24.70
2023-03-31T16:49:27.424Z,23.48
2023-03-31T16:54:32.099Z,24.97
2023-03-31T16:59:38.047Z,27.63
2023-03-31T17:04:42.894Z,25.73
2023-03-31T17:09:47.490Z,24.87
2023-03-31T17:14:53.069Z,23.35
2023-03-31T17:19:57.590Z,25.58
2023-03-31T17:25:01.780Z,20.73
2023-03-31T17:30:09.813Z,27.13
2023-03-31T17:35:20.597Z,24.23
2023-03-31T17:40:28.316Z,25.40
2023-03-31T17:45:34.896Z,27.90
2023-03-31T17:50:39.450Z,28.30
2023-03-31T17:55:46.180Z,23.90
2023-03-31T18:00:52.229Z,26.25
2023-03-31T18:05:56.442Z,23.45
2023-03-31T18:11:00.815Z,25.95
2023-03-31T18:16:09.697Z,24.30
2023-03-31T18:21:14.831Z,24.17
2023-03-31T18:26:19.476Z,23.10
2023-03-31T18:31:27.038Z,26.85
2023-03-31T18:36:32.476Z,26.10
2023-03-31T18:41:37.502Z,23.88
2023-03-31T18:46:43.497Z,25.20
2023-03-31T18:51:47.585Z,29.85
2023-03-31T18:56:55.384Z,45.83
2023-03-31T19:02:01.084Z,26.50
2023-03-31T19:07:05.394Z,25.23
2023-03-31T19:12:09.601Z,22.42
2023-03-31T19:17:15.239Z,25.35
2023-03-31T19:22:19.438Z,24.73
2023-03-31T19:27:23.881Z,22.60
2023-03-31T19:32:29.672Z,26.15
2023-03-31T19:37:33.906Z,21.95
2023-03-31T19:42:38.724Z,21.55
2023-03-31T19:47:44.288Z,27.63
2023-03-31T19:52:49.969Z,30.10
2023-03-31T19:57:58.107Z,25.95
2023-03-31T20:03:07.135Z,22.02
2023-03-31T20:08:11.662Z,21.98
2023-03-31T20:13:15.918Z,20.73
2023-03-31T20:18:21.495Z,16.33
2023-03-31T20:23:25.624Z,15.90
2023-03-31T20:28:30.216Z,17.20
2023-03-31T20:33:36.424Z,19.88
2023-03-31T20:38:41.754Z,15.77
2023-03-31T20:43:46.463Z,17.10
2023-03-31T20:48:55.081Z,15.55
2023-03-31T20:54:01.467Z,20.65
2023-03-31T20:59:08.175Z,17.50
2023-03-31T21:04:17.026Z,19.75
2023-03-31T21:09:21.374Z,19.85
2023-03-31T21:14:25.464Z,20.00
2023-03-31T21:19:31.930Z,19.67
2023-03-31T21:24:36.377Z,19.50
2023-03-31T21:29:40.542Z,20.65
2023-03-31T21:34:46.224Z,22.50
2023-03-31T21:39:50.410Z,21.83
2023-03-31T21:44:58.938Z,22.70
2023-03-31T21:50:04.628Z,19.42
2023-03-31T21:55:09.536Z,19.80
2023-03-31T22:00:15.858Z,19.17
2023-03-31T22:05:21.886Z,21.02
2023-03-31T22:10:26.050Z,21.02
2023-03-31T22:15:30.786Z,19.48
2023-03-31T22:20:36.992Z,18.67
2023-03-31T22:25:41.239Z,19.48
2023-03-31T22:30:45.520Z,19.15
2023-03-31T22:35:51.132Z,16.75
2023-03-31T22:40:55.514Z,19.60
2023-03-31T22:46:03.907Z,17.17
2023-03-31T22:51:12.072Z,20.67
2023-03-31T22:56:16.357Z,23.10
2023-03-31T23:01:22.605Z,15.88
2023-03-31T23:06:29.214Z,18.92
2023-03-31T23:11:33.408Z,16.83
2023-03-31T23:16:37.601Z,15.20
2023-03-31T23:21:43.229Z,17.05
2023-03-31T23:26:47.560Z,15.27
2023-03-31T23:31:51.829Z,13.75
2023-03-31T23:36:57.328Z,15.68
2023-03-31T23:42:01.522Z,14.20
2023-03-31T23:47:05.942Z,16.45
2023-03-31T23:52:11.460Z,15.48
2023-03-31T23:57:15.548Z,14.77
